Time;durP1;ratioP1;P1;durP2;ratioP2;P2;SDS_P1;SDS_P2;PMS_P1;PMS_P2;Temp;Humidity;BMP_temperature;BMP_pressure;BME280_temperature;BME280_humidity;BME280_pressure;Samples;Min_cycle;Max_cycle;Signal;HPM_P1;HPM_P2
2023/06/27 00:00:09;;;;;;;;;;;;;;;24.08;67.97;100607.59;7399350;19;1735;-54
2023/06/27 00:02:38;;;;;;;;;;;;;;;24.03;67.86;100601.84;7399342;19;1731;-54
2023/06/27 00:05:07;;;;;;;;;;;;;;;24.09;67.77;100611.97;7398819;19;1402;-54
2023/06/27 00:07:35;;;;;;;;;;;;;;;24.06;67.50;100600.69;7400878;19;1814;-54
2023/06/27 00:10:08;;;;;;;;;;;;;;;24.15;67.60;100603.19;7400101;19;1492;-55
2023/06/27 00:12:37;;;;;;;;;;;;;;;24.12;67.48;100590.00;7400455;19;1829;-54
2023/06/27 00:15:06;;;;;;;;;;;;;;;24.13;67.70;100609.75;7400517;19;1429;-54
2023/06/27 00:17:37;;;;;;;;;;;;;;;24.10;67.62;100591.22;7400639;19;1830;-54
2023/06/27 00:20:05;;;;;;;;;;;;;;;24.13;67.45;100596.25;7400193;19;1435;-55
2023/06/27 00:22:33;;;;;;;;;;;;;;;24.09;67.59;100603.84;7400342;19;2188;-54
2023/06/27 00:25:02;;;;;;;;;;;;;;;24.07;67.85;100578.88;7399676;19;1509;-54
2023/06/27 00:27:33;;;;;;;;;;;;;;;24.09;67.56;100611.13;7400872;19;1679;-54
2023/06/27 00:30:01;;;;;;;;;;;;;;;24.11;67.68;100603.69;7399604;19;1409;-55
2023/06/27 00:32:29;;;;;;;;;;;;;;;24.10;67.69;100600.16;7399827;19;1484;-54
2023/06/27 00:34:58;;;;;;;;;;;;;;;24.06;67.88;100590.72;7399282;19;1445;-54
2023/06/27 00:37:26;;;;;;;;;;;;;;;24.04;67.63;100597.31;7397716;19;1841;-54
2023/06/27 00:39:54;;;;;;;;;;;;;;;24.07;67.71;100595.09;7398575;19;1737;-54
2023/06/27 00:42:22;;;;;;;;;;;;;;;24.05;67.76;100599.81;7399647;19;1826;-54
2023/06/27 00:44:53;;;;;;;;;;;;;;;24.10;67.84;100600.16;7399143;19;1496;-54
2023/06/27 00:47:22;;;;;;;;;;;;;;;24.10;67.61;100600.16;7398685;19;1826;-54
2023/06/27 00:49:51;;;;;;;;;;;;;;;24.08;67.71;100596.78;7399691;19;1394;-54
2023/06/27 00:52:19;;;;;;;;;;;;;;;24.03;67.65;100593.75;7400089;19;1013;-54
2023/06/27 00:54:48;;;;;;;;;;;;;;;24.06;67.74;100589.88;7397572;19;1865;-54
2023/06/27 00:57:16;;;;;;;;;;;;;;;24.07;67.70;100586.16;7397115;19;1855;-54
2023/06/27 00:59:45;;;;;;;;;;;;;;;24.07;67.79;100592.38;7399482;19;1730;-54
2023/06/27 01:02:23;;;;;;;;;;;;;;;24.07;67.65;100586.97;7398194;19;1391;-54
2023/06/27 01:04:51;;;;;;;;;;;;;;;24.07;67.79;100576.19;7397050;19;1816;-54
2023/06/27 01:07:25;;;;;;;;;;;;;;;24.05;67.91;100564.69;7397890;19;1972;-54
2023/06/27 01:09:53;;;;;;;;;;;;;;;24.06;67.72;100570.97;7399288;19;1477;-54
2023/06/27 01:12:25;;;;;;;;;;;;;;;24.06;67.55;100573.66;7398132;19;1474;-54
2023/06/27 01:14:55;;;;;;;;;;;;;;;24.06;67.59;100554.75;7399761;19;977;-54
2023/06/27 01:17:26;;;;;;;;;;;;;;;24.06;67.56;100554.75;7398517;19;1961;-54
2023/06/27 01:19:59;;;;;;;;;;;;;;;24.07;67.89;100567.25;7398442;19;1470;-54
2023/06/27 01:22:29;;;;;;;;;;;;;;;24.08;67.59;100568.94;7397438;19;1553;-54
2023/06/27 01:25:01;;;;;;;;;;;;;;;24.06;67.62;100562.88;7395242;19;1439;-54
2023/06/27 01:27:29;;;;;;;;;;;;;;;24.07;67.65;100573.47;7397311;19;1821;-54
2023/06/27 01:29:58;;;;;;;;;;;;;;;24.11;67.70;100572.09;7396672;19;1774;-54
2023/06/27 01:32:28;;;;;;;;;;;;;;;24.10;67.62;100569.59;7397766;19;1715;-54
2023/06/27 01:35:01;;;;;;;;;;;;;;;24.05;67.88;100562.00;7398173;19;1645;-54
2023/06/27 01:37:31;;;;;;;;;;;;;;;24.11;67.56;100572.09;7398020;19;1853;-54
2023/06/27 01:40:04;;;;;;;;;;;;;;;24.11;67.67;100576.69;7397897;19;1679;-54
2023/06/27 01:42:34;;;;;;;;;;;;;;;24.08;67.80;100580.56;7396451;19;1841;-54
2023/06/27 01:45:04;;;;;;;;;;;;;;;23.92;67.55;100559.84;7397911;19;1481;-55
2023/06/27 01:47:32;;;;;;;;;;;;;;;24.07;67.86;100581.56;7398897;19;966;-55
2023/06/27 01:50:01;;;;;;;;;;;;;;;24.00;67.86;100577.91;7398264;19;1944;-54
2023/06/27 01:52:29;;;;;;;;;;;;;;;24.05;67.69;100583.59;7397409;19;1866;-54
2023/06/27 01:54:59;;;;;;;;;;;;;;;23.99;67.96;100568.09;7393775;19;1580;-53
2023/06/27 01:57:30;;;;;;;;;;;;;;;24.03;67.77;100569.44;7396393;19;1743;-54
2023/06/27 01:59:58;;;;;;;;;;;;;;;24.03;67.76;100574.84;7396533;19;1414;-54
2023/06/27 02:02:27;;;;;;;;;;;;;;;24.04;67.89;100576.53;7396409;19;1378;-54
2023/06/27 02:04:55;;;;;;;;;;;;;;;24.01;67.70;100574.16;7395670;19;1813;-54
2023/06/27 02:07:23;;;;;;;;;;;;;;;24.02;67.70;100570.47;7396404;19;1817;-55
2023/06/27 02:09:51;;;;;;;;;;;;;;;24.02;67.83;100562.38;7397660;19;1758;-54
2023/06/27 02:12:20;;;;;;;;;;;;;;;24.02;67.77;100568.59;7397164;19;1110;-54
2023/06/27 02:14:51;;;;;;;;;;;;;;;24.06;67.72;100576.38;7397648;19;1046;-54
2023/06/27 02:17:19;;;;;;;;;;;;;;;24.05;67.60;100583.59;7396773;19;1862;-54
2023/06/27 02:19:47;;;;;;;;;;;;;;;24.04;67.81;100573.84;7394819;19;1909;-54
2023/06/27 02:22:16;;;;;;;;;;;;;;;24.05;67.61;100572.81;7395958;19;1945;-54
2023/06/27 02:24:44;;;;;;;;;;;;;;;24.07;67.75;100581.56;7396450;19;1328;-54
2023/06/27 02:27:12;;;;;;;;;;;;;;;24.03;67.72;100574.84;7396230;19;1784;-54
2023/06/27 02:29:41;;;;;;;;;;;;;;;24.04;67.63;100560.34;7395998;19;1462;-54
2023/06/27 02:32:12;;;;;;;;;;;;;;;24.04;67.54;100568.44;7394629;19;1715;-54
2023/06/27 02:34:40;;;;;;;;;;;;;;;24.01;67.68;100566.06;7394936;19;1751;-54
2023/06/27 02:37:08;;;;;;;;;;;;;;;24.05;67.63;100577.38;7402700;19;1417;-54
2023/06/27 02:39:37;;;;;;;;;;;;;;;24.02;67.46;100567.75;7401065;19;1849;-54
2023/06/27 02:42:05;;;;;;;;;;;;;;;24.06;67.63;100577.22;7403707;19;1109;-54
2023/06/27 02:44:34;;;;;;;;;;;;;;;24.03;67.63;100577.53;7401505;19;2134;-54
2023/06/27 02:47:02;;;;;;;;;;;;;;;24.04;67.68;100587.34;7402529;19;1845;-54
2023/06/27 02:49:33;;;;;;;;;;;;;;;24.03;67.47;100564.03;7403964;19;1825;-54
2023/06/27 02:52:01;;;;;;;;;;;;;;;24.05;67.76;100582.78;7403923;19;1121;-54
2023/06/27 02:54:29;;;;;;;;;;;;;;;24.02;67.83;100578.56;7402929;19;1897;-54
2023/06/27 02:56:58;;;;;;;;;;;;;;;23.99;67.55;100573.50;7403888;19;1363;-54
2023/06/27 02:59:26;;;;;;;;;;;;;;;24.04;67.72;100576.53;7400128;19;1854;-54
2023/06/27 03:01:54;;;;;;;;;;;;;;;24.05;67.64;100575.50;7401893;19;1985;-54
2023/06/27 03:04:24;;;;;;;;;;;;;;;24.07;67.73;100581.56;7400119;19;1806;-54
2023/06/27 03:06:54;;;;;;;;;;;;;;;24.07;67.47;100576.19;7401248;19;1802;-54
2023/06/27 03:09:23;;;;;;;;;;;;;;;24.02;67.78;100573.16;7402673;19;1401;-54
2023/06/27 03:11:51;;;;;;;;;;;;;;;23.98;67.56;100578.06;7402841;19;1829;-54
2023/06/27 03:14:19;;;;;;;;;;;;;;;24.04;67.64;100581.94;7401633;19;1758;-54
2023/06/27 03:16:48;;;;;;;;;;;;;;;24.01;67.60;100583.13;7402857;19;1664;-54
2023/06/27 03:19:16;;;;;;;;;;;;;;;24.02;67.53;100587.50;7401083;19;1861;-54
2023/06/27 03:21:45;;;;;;;;;;;;;;;23.99;67.71;100595.13;7403397;19;1093;-54
2023/06/27 03:24:15;;;;;;;;;;;;;;;24.04;67.61;100603.56;7400973;19;1817;-54
2023/06/27 03:26:44;;;;;;;;;;;;;;;24.08;67.65;100610.28;7402127;19;1730;-54
2023/06/27 03:29:12;;;;;;;;;;;;;;;24.04;67.74;100608.97;7401366;19;1773;-54
2023/06/27 03:31:40;;;;;;;;;;;;;;;24.05;67.72;100596.28;7401384;19;1403;-54
2023/06/27 03:34:09;;;;;;;;;;;;;;;24.10;67.42;100592.06;7399647;19;1344;-54
2023/06/27 03:36:37;;;;;;;;;;;;;;;24.04;67.47;100603.56;7401825;19;1829;-54
2023/06/27 03:39:06;;;;;;;;;;;;;;;23.99;67.78;100612.19;7400504;19;1857;-55
2023/06/27 03:41:36;;;;;;;;;;;;;;;24.05;67.62;100605.22;7401019;19;1751;-54
2023/06/27 03:44:05;;;;;;;;;;;;;;;24.02;67.44;100608.28;7401585;19;1767;-54
2023/06/27 03:46:33;;;;;;;;;;;;;;;24.04;67.53;100603.56;7401857;19;1019;-54
2023/06/27 03:49:02;;;;;;;;;;;;;;;24.05;67.46;100615.19;7402661;19;1093;-54
2023/06/27 03:51:30;;;;;;;;;;;;;;;24.06;67.58;100611.50;7401616;19;1848;-54
2023/06/27 03:54:00;;;;;;;;;;;;;;;24.04;67.50;100608.97;7397644;19;1846;-53
2023/06/27 03:56:29;;;;;;;;;;;;;;;23.97;67.82;100602.53;7400402;19;1456;-54
2023/06/27 03:59:00;;;;;;;;;;;;;;;24.04;67.77;100613.53;7401258;19;1837;-54
2023/06/27 04:01:28;;;;;;;;;;;;;;;24.07;67.31;100600.47;7399065;19;1084;-54
2023/06/27 04:03:56;;;;;;;;;;;;;;;24.10;67.46;100605.56;7399013;19;1799;-54
2023/06/27 04:06:24;;;;;;;;;;;;;;;24.05;67.43;100612.50;7400151;19;1829;-54
2023/06/27 04:08:53;;;;;;;;;;;;;;;24.05;67.57;100618.72;7400847;19;1378;-54
2023/06/27 04:11:22;;;;;;;;;;;;;;;24.01;67.63;100604.75;7400214;19;1406;-54
2023/06/27 04:13:51;;;;;;;;;;;;;;;23.95;68.00;100615.38;7399187;19;1967;-54
2023/06/27 04:16:21;;;;;;;;;;;;;;;23.94;68.06;100619.94;7399707;19;1723;-54
2023/06/27 04:18:50;;;;;;;;;;;;;;;23.95;67.90;100615.38;7398765;19;1849;-54
2023/06/27 04:21:18;;;;;;;;;;;;;;;23.97;67.82;100616.91;7398606;19;1743;-54
2023/06/27 04:23:46;;;;;;;;;;;;;;;23.97;67.67;100624.16;7399451;19;1409;-54
2023/06/27 04:26:17;;;;;;;;;;;;;;;23.94;68.04;100621.81;7399809;19;1469;-54
2023/06/27 04:28:47;;;;;;;;;;;;;;;23.95;68.00;100615.38;7399720;19;1801;-54
2023/06/27 04:31:15;;;;;;;;;;;;;;;23.98;67.83;100626.69;7399435;19;1422;-54
2023/06/27 04:33:47;;;;;;;;;;;;;;;24.04;67.49;100611.66;7399812;19;1714;-54
2023/06/27 04:36:17;;;;;;;;;;;;;;;24.10;67.75;100624.47;7400568;19;1268;-54
2023/06/27 04:38:48;;;;;;;;;;;;;;;24.05;67.47;100626.84;7398454;19;1870;-54
2023/06/27 04:41:16;;;;;;;;;;;;;;;24.15;67.32;100622.09;7399665;19;1525;-54
2023/06/27 04:43:44;;;;;;;;;;;;;;;24.18;67.21;100626.31;7398496;19;1876;-54
2023/06/27 04:46:13;;;;;;;;;;;;;;;24.07;67.47;100630.19;7399986;19;1739;-54
2023/06/27 04:48:41;;;;;;;;;;;;;;;24.15;67.37;100624.81;7398960;19;1668;-54
2023/06/27 04:51:12;;;;;;;;;;;;;;;24.05;67.34;100616.03;7398489;19;1751;-55
2023/06/27 04:53:41;;;;;;;;;;;;;;;24.05;67.55;100621.44;7397709;19;1989;-54
2023/06/27 04:56:09;;;;;;;;;;;;;;;24.08;67.58;100626.50;7397413;19;1754;-54
2023/06/27 04:58:37;;;;;;;;;;;;;;;24.13;67.26;100623.28;7397245;19;1860;-54
2023/06/27 05:01:05;;;;;;;;;;;;;;;24.12;67.29;100625.13;7398837;19;1755;-54
2023/06/27 05:03:34;;;;;;;;;;;;;;;24.12;67.60;100630.53;7395450;19;1778;-54
2023/06/27 05:06:02;;;;;;;;;;;;;;;23.83;67.34;100579.78;7399012;19;1924;-54
2023/06/27 05:08:33;;;;;;;;;;;;;;;24.10;67.60;100623.63;7399474;19;1076;-54
2023/06/27 05:11:01;;;;;;;;;;;;;;;24.07;67.75;100632.91;7400035;19;1004;-54
2023/06/27 05:13:29;;;;;;;;;;;;;;;24.08;67.51;100626.50;7397776;19;1529;-54
2023/06/27 05:15:58;;;;;;;;;;;;;;;24.11;67.62;100626.13;7398006;19;1955;-54
2023/06/27 05:18:27;;;;;;;;;;;;;;;24.07;67.76;100613.16;7398740;19;1794;-54
2023/06/27 05:20:55;;;;;;;;;;;;;;;24.02;67.71;100616.38;7395753;19;1857;-54
2023/06/27 05:23:24;;;;;;;;;;;;;;;24.09;67.58;100617.38;7397458;19;1457;-54
2023/06/27 05:25:55;;;;;;;;;;;;;;;24.06;67.83;100623.13;7396944;19;1406;-54
2023/06/27 05:28:23;;;;;;;;;;;;;;;24.15;67.58;100626.63;7397602;19;1464;-54
2023/06/27 05:30:51;;;;;;;;;;;;;;;24.15;67.33;100626.63;7397003;19;1434;-54
2023/06/27 05:33:20;;;;;;;;;;;;;;;24.12;67.38;100635.94;7397651;19;1492;-54
2023/06/27 05:35:48;;;;;;;;;;;;;;;24.11;67.54;100636.94;7398078;19;945;-54
2023/06/27 05:38:16;;;;;;;;;;;;;;;24.11;67.52;100622.59;7397491;19;1948;-54
2023/06/27 05:40:44;;;;;;;;;;;;;;;24.09;67.79;100632.75;7396159;19;1837;-54
2023/06/27 05:43:15;;;;;;;;;;;;;;;24.10;67.64;100629.88;7396788;19;1534;-54
2023/06/27 05:45:44;;;;;;;;;;;;;;;24.08;67.65;100631.91;7397082;19;1785;-55
2023/06/27 05:48:12;;;;;;;;;;;;;;;24.09;67.67;100632.75;7396392;19;1449;-54
2023/06/27 05:50:40;;;;;;;;;;;;;;;24.11;67.68;100631.53;7396881;19;1782;-54
2023/06/27 05:53:09;;;;;;;;;;;;;;;24.19;67.57;100628.84;7396923;19;1062;-54
2023/06/27 05:55:37;;;;;;;;;;;;;;;24.16;67.42;100629.19;7396178;19;1885;-55
2023/06/27 05:58:06;;;;;;;;;;;;;;;24.09;67.51;100625.47;7397546;19;1426;-54
2023/06/27 06:00:37;;;;;;;;;;;;;;;24.10;67.54;100634.44;7395566;19;1861;-54
2023/06/27 06:03:05;;;;;;;;;;;;;;;24.09;67.84;100627.34;7396267;19;1568;-54
2023/06/27 06:05:33;;;;;;;;;;;;;;;24.05;67.89;100616.03;7395945;19;1461;-54
2023/06/27 06:08:02;;;;;;;;;;;;;;;24.00;68.09;100619.25;7395650;19;1315;-54
2023/06/27 06:10:30;;;;;;;;;;;;;;;24.02;68.13;100630.72;7400293;19;1748;-54
2023/06/27 06:12:58;;;;;;;;;;;;;;;24.04;68.03;100632.44;7404497;19;1890;-54
2023/06/27 06:15:27;;;;;;;;;;;;;;;23.99;67.99;100617.59;7403934;19;1747;-55
2023/06/27 06:17:57;;;;;;;;;;;;;;;24.02;68.01;100624.50;7405194;19;1742;-54
2023/06/27 06:20:26;;;;;;;;;;;;;;;24.01;68.06;100623.66;7402714;19;1853;-54
2023/06/27 06:22:54;;;;;;;;;;;;;;;24.08;67.81;100626.50;7405197;19;1062;-54
2023/06/27 06:25:23;;;;;;;;;;;;;;;24.02;67.92;100635.28;7404435;19;1858;-54
2023/06/27 06:27:51;;;;;;;;;;;;;;;24.05;68.10;100626.00;7404180;19;1880;-54
2023/06/27 06:30:19;;;;;;;;;;;;;;;24.05;68.21;100628.69;7403477;19;1929;-54
2023/06/27 06:32:48;;;;;;;;;;;;;;;24.08;67.82;100617.56;7404494;19;1813;-55
2023/06/27 06:35:19;;;;;;;;;;;;;;;24.12;67.76;100621.59;7400174;19;1722;-54
2023/06/27 06:37:48;;;;;;;;;;;;;;;24.19;67.54;100631.53;7403178;19;1743;-54
2023/06/27 06:40:16;;;;;;;;;;;;;;;24.20;67.40;100622.41;7400904;19;1855;-54
2023/06/27 06:42:44;;;;;;;;;;;;;;;24.24;67.25;100608.56;7402618;19;1488;-54
2023/06/27 06:45:13;;;;;;;;;;;;;;;24.28;67.18;100609.91;7401878;19;1822;-54
2023/06/27 06:47:41;;;;;;;;;;;;;;;24.30;67.19;100607.88;7403332;19;1726;-54
2023/06/27 06:50:10;;;;;;;;;;;;;;;24.32;67.05;100605.84;7403216;19;1394;-54
2023/06/27 06:52:41;;;;;;;;;;;;;;;24.32;67.26;100616.63;7403202;19;1025;-54
2023/06/27 06:55:09;;;;;;;;;;;;;;;24.32;67.10;100595.03;7401384;19;1483;-54
2023/06/27 06:57:38;;;;;;;;;;;;;;;24.36;66.93;100601.75;7402732;19;1749;-54
2023/06/27 07:00:07;;;;;;;;;;;;;;;24.37;67.07;100614.25;7400568;19;1853;-54
2023/06/27 07:02:35;;;;;;;;;;;;;;;24.36;67.23;100607.16;7400908;19;1821;-54
2023/06/27 07:05:04;;;;;;;;;;;;;;;24.30;67.22;100602.47;7400012;19;1866;-54
2023/06/27 07:07:33;;;;;;;;;;;;;;;24.34;67.41;100638.94;7400258;19;1819;-54
2023/06/27 07:10:03;;;;;;;;;;;;;;;24.28;67.33;100605.34;7402859;19;1734;-54
2023/06/27 07:12:32;;;;;;;;;;;;;;;24.32;67.29;100605.84;7403519;19;1743;-54
2023/06/27 07:15:00;;;;;;;;;;;;;;;24.28;67.58;100607.19;7403569;19;1328;-54
2023/06/27 07:17:28;;;;;;;;;;;;;;;24.21;67.41;100602.50;7403583;19;1101;-54
2023/06/27 07:19:58;;;;;;;;;;;;;;;24.21;67.57;100604.34;7401546;19;1832;-54
2023/06/27 07:22:26;;;;;;;;;;;;;;;24.21;67.57;100609.72;7400511;19;1858;-54
2023/06/27 07:24:55;;;;;;;;;;;;;;;24.18;67.92;100610.94;7402311;19;1937;-54
2023/06/27 07:27:25;;;;;;;;;;;;;;;24.16;67.70;100599.47;7401818;19;1728;-54
2023/06/27 07:29:54;;;;;;;;;;;;;;;24.18;67.73;100610.94;7401937;19;1375;-54
2023/06/27 07:32:22;;;;;;;;;;;;;;;24.19;67.89;100601.81;7400529;19;1382;-55
2023/06/27 07:34:50;;;;;;;;;;;;;;;24.22;67.67;100600.63;7400978;19;1445;-54
2023/06/27 07:37:19;;;;;;;;;;;;;;;24.24;67.47;100608.56;7400335;19;1845;-54
2023/06/27 07:39:47;;;;;;;;;;;;;;;24.25;67.43;100594.03;7401736;19;1849;-55
2023/06/27 07:42:16;;;;;;;;;;;;;;;24.27;67.58;100608.19;7401400;19;1738;-54
2023/06/27 07:44:47;;;;;;;;;;;;;;;24.31;67.40;100598.72;7398435;19;1751;-54
2023/06/27 07:47:15;;;;;;;;;;;;;;;24.34;67.25;100601.09;7401826;19;1750;-54
2023/06/27 07:49:44;;;;;;;;;;;;;;;24.31;67.37;100596.88;7401890;19;1754;-54
2023/06/27 07:52:12;;;;;;;;;;;;;;;24.29;67.24;100595.34;7402423;19;953;-54
2023/06/27 07:54:41;;;;;;;;;;;;;;;24.31;67.12;100602.28;7401314;19;1876;-54
2023/06/27 07:57:09;;;;;;;;;;;;;;;24.37;67.04;100600.72;7398370;19;1917;-54
2023/06/27 07:59:37;;;;;;;;;;;;;;;24.35;67.29;100600.06;7400400;19;1856;-54
2023/06/27 08:02:08;;;;;;;;;;;;;;;24.37;67.20;100608.84;7400598;19;1398;-54
2023/06/27 08:04:37;;;;;;;;;;;;;;;24.33;67.06;100594.00;7399474;19;1402;-55
2023/06/27 08:07:05;;;;;;;;;;;;;;;24.37;67.41;100603.44;7399983;19;1513;-54
2023/06/27 08:09:33;;;;;;;;;;;;;;;24.32;67.33;100579.66;7399481;19;1124;-54
2023/06/27 08:12:03;;;;;;;;;;;;;;;24.32;67.32;100601.25;7401436;19;1885;-54
2023/06/27 08:14:31;;;;;;;;;;;;;;;24.31;67.26;100590.63;7400336;19;1977;-54
2023/06/27 08:17:00;;;;;;;;;;;;;;;24.33;67.20;100594.00;7400524;19;1858;-54
2023/06/27 08:19:31;;;;;;;;;;;;;;;24.34;67.35;100593.00;7399950;19;1465;-54
2023/06/27 08:21:59;;;;;;;;;;;;;;;24.34;67.26;100582.19;7397947;19;1846;-54
2023/06/27 08:24:28;;;;;;;;;;;;;;;24.37;67.09;100587.22;7399398;19;1738;-54
2023/06/27 08:26:56;;;;;;;;;;;;;;;24.39;67.24;100602.25;7398851;19;1366;-54
2023/06/27 08:29:25;;;;;;;;;;;;;;;24.39;67.14;100596.00;7400220;19;1849;-54
2023/06/27 08:31:58;;;;;;;;;;;;;;;24.37;67.31;100582.69;7399917;19;1774;-54
2023/06/27 08:34:28;;;;;;;;;;;;;;;24.37;67.27;100589.91;7397117;19;1824;-54
2023/06/27 08:36:59;;;;;;;;;;;;;;;24.39;67.35;100596.00;7399420;19;1785;-54
2023/06/27 08:39:28;;;;;;;;;;;;;;;24.38;67.18;100583.50;7399612;19;1414;-54
2023/06/27 08:41:57;;;;;;;;;;;;;;;24.38;66.99;100570.81;7397865;19;1850;-54
2023/06/27 08:44:25;;;;;;;;;;;;;;;24.38;67.07;100588.91;7400127;19;1101;-54
2023/06/27 08:46:54;;;;;;;;;;;;;;;24.38;66.80;100592.44;7395457;19;1929;-54
2023/06/27 08:49:23;;;;;;;;;;;;;;;24.41;67.17;100583.13;7399081;19;1324;-54
2023/06/27 08:51:52;;;;;;;;;;;;;;;24.38;67.20;100572.69;7400370;19;958;-55
2023/06/27 08:54:26;;;;;;;;;;;;;;;24.40;66.78;100578.78;7397897;19;1512;-54
2023/06/27 08:56:55;;;;;;;;;;;;;;;24.40;67.19;100576.06;7398454;19;1856;-54
2023/06/27 08:59:27;;;;;;;;;;;;;;;24.40;67.04;100570.66;7398186;19;1525;-55
2023/06/27 09:01:55;;;;;;;;;;;;;;;24.44;66.89;100571.16;7397252;19;1843;-54
2023/06/27 09:04:24;;;;;;;;;;;;;;;24.44;66.86;100580.09;7396558;19;2443;-55
2023/06/27 09:06:52;;;;;;;;;;;;;;;24.44;67.07;100577.41;7399555;19;1933;-54
2023/06/27 09:09:24;;;;;;;;;;;;;;;24.38;67.17;100567.28;7398973;19;1607;-54
2023/06/27 09:11:53;;;;;;;;;;;;;;;24.35;66.89;100568.50;7399032;19;1853;-54
2023/06/27 09:14:21;;;;;;;;;;;;;;;24.38;67.01;100570.00;7397856;19;1525;-55
2023/06/27 09:16:50;;;;;;;;;;;;;;;24.38;67.14;100572.69;7398232;19;1393;-54
2023/06/27 09:19:19;;;;;;;;;;;;;;;24.38;67.13;100561.88;7397961;19;1496;-54
2023/06/27 09:21:50;;;;;;;;;;;;;;;24.38;66.91;100572.69;7396883;19;1849;-54
2023/06/27 09:24:23;;;;;;;;;;;;;;;24.39;67.01;100568.97;7397389;19;1853;-61
2023/06/27 09:26:54;;;;;;;;;;;;;;;24.41;67.00;100566.91;7397578;19;1745;-54
2023/06/27 09:29:22;;;;;;;;;;;;;;;24.41;67.00;100569.63;7397848;19;1719;-54
2023/06/27 09:31:50;;;;;;;;;;;;;;;24.37;67.11;100571.00;7397797;19;1485;-54
2023/06/27 09:34:19;;;;;;;;;;;;;;;24.37;67.00;100566.47;7398645;19;998;-54
2023/06/27 09:36:47;;;;;;;;;;;;;;;24.38;66.98;100568.13;7398792;19;1062;-54
2023/06/27 09:39:16;;;;;;;;;;;;;;;24.37;67.19;100555.66;7397382;19;1501;-54
2023/06/27 09:41:46;;;;;;;;;;;;;;;24.34;67.23;100569.50;7396128;19;1870;-54
2023/06/27 09:44:18;;;;;;;;;;;;;;;24.36;67.03;100558.50;7396512;19;1493;-54
2023/06/27 09:46:47;;;;;;;;;;;;;;;24.34;67.10;100569.50;7397812;19;1414;-54
2023/06/27 09:49:18;;;;;;;;;;;;;;;24.39;67.33;100552.75;7397000;19;1750;-54
2023/06/27 09:51:46;;;;;;;;;;;;;;;24.37;67.26;100554.78;7398126;19;963;-54
2023/06/27 09:54:16;;;;;;;;;;;;;;;24.36;67.13;100558.50;7397272;19;1806;-54
2023/06/27 09:56:44;;;;;;;;;;;;;;;24.36;67.27;100558.50;7397898;19;1751;-54
2023/06/27 09:59:13;;;;;;;;;;;;;;;24.32;67.16;100546.38;7396688;19;1751;-54
2023/06/27 10:01:44;;;;;;;;;;;;;;;24.34;67.17;100544.34;7394695;19;1850;-54
2023/06/27 10:04:12;;;;;;;;;;;;;;;24.37;67.40;100543.97;7394854;19;1434;-54
2023/06/27 10:06:44;;;;;;;;;;;;;;;24.38;67.31;100572.69;7394052;19;1808;-54
2023/06/27 10:09:12;;;;;;;;;;;;;;;24.38;67.34;100553.78;7395727;19;1668;-54
2023/06/27 10:11:41;;;;;;;;;;;;;;;24.36;67.11;100553.13;7397171;19;1497;-54
2023/06/27 10:14:10;;;;;;;;;;;;;;;24.38;67.41;100554.63;7396811;19;1834;-54
2023/06/27 10:16:39;;;;;;;;;;;;;;;24.37;67.31;100550.25;7396006;19;1791;-54
2023/06/27 10:19:10;;;;;;;;;;;;;;;24.36;67.21;100553.94;7396691;19;1742;-54
2023/06/27 10:21:38;;;;;;;;;;;;;;;24.38;67.00;100542.97;7396959;19;1849;-54
2023/06/27 10:24:07;;;;;;;;;;;;;;;24.35;67.01;100541.47;7395177;19;1513;-54
2023/06/27 10:26:35;;;;;;;;;;;;;;;24.37;67.11;100547.53;7395055;19;1481;-54
2023/06/27 10:29:14;;;;;;;;;;;;;;;24.39;67.11;100553.59;7395075;19;1723;-54
2023/06/27 10:31:45;;;;;;;;;;;;;;;24.42;67.01;100549.69;7395772;19;946;-54
2023/06/27 10:34:18;;;;;;;;;;;;;;;24.34;67.36;100530.81;7395424;19;1865;-54
2023/06/27 10:36:54;;;;;;;;;;;;;;;24.36;67.25;100526.09;7396096;19;1825;-54
2023/06/27 10:39:29;;;;;;;;;;;;;;;24.32;67.53;100535.56;7395296;19;1763;-54
2023/06/27 10:41:57;;;;;;;;;;;;;;;24.34;67.21;100522.72;7393590;19;1857;-54
2023/06/27 10:44:26;;;;;;;;;;;;;;;24.39;67.38;100542.78;7395109;19;1806;-54
2023/06/27 10:47:24;;;;;;;;;;;;;;;24.43;67.27;100537.84;7394088;19;1445;-54
2023/06/27 10:49:55;;;;;;;;;;;;;;;24.38;67.39;100519.47;7394678;19;1727;-54
2023/06/27 10:52:24;;;;;;;;;;;;;;;24.34;67.51;100522.72;7394987;19;1094;-54
2023/06/27 10:55:07;;;;;;;;;;;;;;;24.33;67.24;100523.72;7395797;19;2015;-54
2023/06/27 10:57:40;;;;;;;;;;;;;;;24.33;67.37;100531.84;7400483;19;1916;-55
2023/06/27 11:00:15;;;;;;;;;;;;;;;24.31;67.25;100520.34;7402804;19;1577;-54
2023/06/27 11:02:45;;;;;;;;;;;;;;;24.31;67.59;100518.53;7398315;19;1838;-54
2023/06/27 11:05:18;;;;;;;;;;;;;;;24.34;67.57;100522.72;7400007;19;1898;-54
2023/06/27 11:07:54;;;;;;;;;;;;;;;24.31;67.50;100513.13;7403377;19;1734;-54
2023/06/27 11:10:26;;;;;;;;;;;;;;;24.37;67.45;100516.94;7399255;19;1378;-54
2023/06/27 11:13:14;;;;;;;;;;;;;;;24.35;67.28;100502.78;7402201;19;1406;-54
2023/06/27 11:15:43;;;;;;;;;;;;;;;24.34;67.39;100509.22;7403071;19;1741;-54
2023/06/27 11:18:11;;;;;;;;;;;;;;;24.33;67.31;100504.81;7402675;19;1731;-54
2023/06/27 11:20:42;;;;;;;;;;;;;;;24.31;67.50;100487.94;7401110;19;1842;-54
2023/06/27 11:23:11;;;;;;;;;;;;;;;24.32;67.40;100497.72;7401628;19;1460;-54
2023/06/27 11:25:42;;;;;;;;;;;;;;;24.32;67.40;100495.03;7401823;19;1746;-54
2023/06/27 11:28:10;;;;;;;;;;;;;;;24.31;67.31;100490.63;7403104;19;1734;-54
2023/06/27 11:30:39;;;;;;;;;;;;;;;24.32;67.46;100497.72;7398993;19;1652;-54
2023/06/27 11:33:08;;;;;;;;;;;;;;;24.32;67.47;100482.34;7402969;19;1012;-54
2023/06/27 11:35:37;;;;;;;;;;;;;;;24.35;67.48;100491.97;7402155;19;1477;-54
2023/06/27 11:38:10;;;;;;;;;;;;;;;24.30;67.40;100492.50;7401572;19;1533;-54
2023/06/27 11:40:39;;;;;;;;;;;;;;;24.30;67.32;100472.75;7401132;19;1553;-54
2023/06/27 11:43:08;;;;;;;;;;;;;;;24.30;67.48;100479.00;7399792;19;1845;-54
2023/06/27 11:45:40;;;;;;;;;;;;;;;24.31;67.21;100464.47;7401425;19;1410;-54
2023/06/27 11:48:08;;;;;;;;;;;;;;;24.33;67.38;100475.09;7401607;19;1782;-54
2023/06/27 11:50:37;;;;;;;;;;;;;;;24.32;67.52;100476.13;7400321;19;1787;-54
2023/06/27 11:53:05;;;;;;;;;;;;;;;24.32;67.45;100470.72;7400442;19;1742;-54
2023/06/27 11:55:43;;;;;;;;;;;;;;;24.32;67.38;100470.72;7401753;19;942;-54
2023/06/27 11:58:13;;;;;;;;;;;;;;;24.30;67.35;100456.53;7400822;19;1873;-54
2023/06/27 12:00:41;;;;;;;;;;;;;;;24.31;67.53;100469.00;7400777;19;1402;-54
2023/06/27 12:03:10;;;;;;;;;;;;;;;24.33;67.72;100469.69;7397619;19;1856;-54
2023/06/27 12:05:45;;;;;;;;;;;;;;;24.29;67.43;100444.91;7400483;19;1749;-54
2023/06/27 12:08:15;;;;;;;;;;;;;;;24.31;67.60;100453.66;7399486;19;1826;-54
2023/06/27 12:10:56;;;;;;;;;;;;;;;24.32;67.58;100457.19;7398513;19;1407;-54
2023/06/27 12:13:24;;;;;;;;;;;;;;;24.29;67.50;100444.03;7399072;19;1481;-54
2023/06/27 12:15:53;;;;;;;;;;;;;;;24.30;67.53;100451.13;7398397;19;1942;-54
2023/06/27 12:18:27;;;;;;;;;;;;;;;24.29;67.46;100444.03;7401099;19;1743;-54
2023/06/27 12:20:56;;;;;;;;;;;;;;;24.32;67.68;100462.59;7399797;19;1837;-54
2023/06/27 12:23:24;;;;;;;;;;;;;;;24.28;67.51;100431.56;7397556;19;1838;-54
2023/06/27 12:25:55;;;;;;;;;;;;;;;24.27;67.50;100448.78;7400489;19;1425;-54
2023/06/27 12:28:24;;;;;;;;;;;;;;;24.29;67.67;100455.72;7400183;19;1360;-54
2023/06/27 12:30:53;;;;;;;;;;;;;;;24.29;67.64;100438.63;7400996;19;1038;-54
2023/06/27 12:33:21;;;;;;;;;;;;;;;24.27;67.56;100429.84;7400220;19;1588;-54
2023/06/27 12:35:49;;;;;;;;;;;;;;;24.26;67.76;100439.00;7399577;19;1521;-54
2023/06/27 12:38:18;;;;;;;;;;;;;;;24.27;67.68;100435.25;7399744;19;1569;-54
2023/06/27 12:40:46;;;;;;;;;;;;;;;24.27;67.78;100419.06;7399125;19;1457;-54
2023/06/27 12:43:17;;;;;;;;;;;;;;;24.30;67.69;100434.91;7398035;19;1869;-54
2023/06/27 12:45:45;;;;;;;;;;;;;;;24.28;67.60;100413.47;7398660;19;1552;-54
2023/06/27 12:48:13;;;;;;;;;;;;;;;24.29;67.63;100412.47;7398797;19;1457;-54
2023/06/27 12:50:42;;;;;;;;;;;;;;;24.28;67.61;100402.66;7397530;19;1737;-54
2023/06/27 12:53:10;;;;;;;;;;;;;;;24.30;67.42;100397.09;7399583;19;1469;-54
2023/06/27 12:55:38;;;;;;;;;;;;;;;24.34;67.43;100403.81;7399691;19;958;-54
2023/06/27 12:58:07;;;;;;;;;;;;;;;24.29;67.55;100390.84;7398450;19;1493;-54